createdAt,value
2022-08-11T02:05:28.974Z,52.34
2022-08-11T10:54:54.762Z,21.32
2022-08-11T11:06:28.728Z,20.81
2022-08-11T11:08:57.655Z,19.34
2022-08-11T11:11:52.523Z,18.61
2022-08-11T11:14:46.794Z,17.65
2022-08-11T11:17:46.663Z,18.15
2022-08-11T11:20:36.612Z,17.59
2022-08-11T11:23:41.732Z,16.58
2022-08-11T11:26:12.699Z,16.20
2022-08-11T11:28:43.097Z,15.32
2022-08-11T11:31:46.274Z,14.89
2022-08-11T11:34:53.434Z,15.13
2022-08-11T11:37:25.227Z,14.69
2022-08-11T11:39:54.784Z,14.16
2022-08-11T11:42:23.308Z,13.99
2022-08-11T11:44:55.628Z,13.71
2022-08-11T11:47:24.448Z,13.61
2022-08-11T11:49:53.137Z,13.47
2022-08-11T11:52:22.516Z,13.46
2022-08-11T11:54:54.600Z,13.63
2022-08-11T11:57:59.024Z,13.25
2022-08-11T12:00:48.207Z,13.52
2022-08-11T12:03:16.710Z,14.10
2022-08-11T12:05:45.615Z,14.47
2022-08-11T12:08:16.411Z,15.30
2022-08-11T12:10:48.080Z,16.27
2022-08-11T12:13:36.050Z,17.38
2022-08-11T12:16:34.024Z,18.42
2022-08-11T12:18:56.596Z,19.36
2022-08-11T12:21:26.315Z,20.47
2022-08-11T12:24:15.700Z,21.09
2022-08-11T12:27:02.834Z,19.79
2022-08-11T12:29:41.246Z,19.10
2022-08-11T12:32:12.181Z,20.40
2022-08-11T12:34:39.990Z,25.83
2022-08-11T12:37:13.719Z,26.14
2022-08-11T12:40:16.315Z,27.46
2022-08-11T12:43:21.065Z,28.23
2022-08-11T12:45:58.434Z,31.06
2022-08-11T12:48:58.721Z,36.23
2022-08-11T12:52:12.225Z,40.69
2022-08-11T12:54:54.385Z,41.59
2022-08-11T12:57:54.759Z,41.68
2022-08-11T13:00:42.636Z,43.90
2022-08-11T13:03:30.664Z,46.27
2022-08-11T13:06:00.726Z,49.36
2022-08-11T13:08:31.522Z,51.03
2022-08-11T13:11:19.112Z,51.56
2022-08-11T13:13:53.649Z,52.31
2022-08-11T13:16:28.032Z,53.20
2022-08-11T13:18:58.523Z,56.38
2022-08-11T13:21:26.876Z,57.36
2022-08-11T13:23:59.742Z,63.70
2022-08-11T13:26:43.488Z,62.48
2022-08-11T13:29:23.094Z,58.30
2022-08-11T13:31:51.452Z,51.21
2022-08-11T13:34:21.445Z,49.15
2022-08-11T13:36:52.344Z,51.58
2022-08-11T13:39:24.176Z,54.91
2022-08-11T13:41:55.233Z,61.77
2022-08-11T13:44:27.202Z,57.58
2022-08-11T13:47:01.658Z,51.51
2022-08-11T13:49:31.863Z,51.37
2022-08-11T13:52:00.208Z,50.31
2022-08-11T13:54:35.227Z,51.45
2022-08-11T13:57:13.541Z,52.18
2022-08-11T13:59:52.369Z,52.89
2022-08-11T14:02:31.753Z,52.20
2022-08-11T14:05:05.365Z,54.60
2022-08-11T14:07:39.481Z,54.86
2022-08-11T14:10:07.960Z,53.60
2022-08-11T14:12:56.650Z,49.36
2022-08-11T14:15:31.168Z,47.42
2022-08-11T14:18:13.839Z,48.85
2022-08-11T14:21:03.231Z,48.24
2022-08-11T14:23:42.039Z,48.74
2022-08-11T14:26:29.506Z,45.72
2022-08-11T14:29:06.233Z,46.09
2022-08-11T14:31:38.011Z,45.28
2022-08-11T14:34:10.378Z,43.30
2022-08-11T14:36:40.762Z,45.31
2022-08-11T14:39:18.176Z,46.54
2022-08-11T14:42:13.220Z,46.83
2022-08-11T14:45:06.302Z,48.66
2022-08-11T14:47:36.455Z,48.84
2022-08-11T14:50:12.058Z,50.99
2022-08-11T14:52:48.181Z,50.99
2022-08-11T14:55:35.518Z,51.23
2022-08-11T14:58:04.238Z,51.21
2022-08-11T15:00:34.508Z,52.40
2022-08-11T15:03:11.558Z,51.50
2022-08-11T15:05:55.990Z,49.98
2022-08-11T15:08:47.857Z,49.16
2022-08-11T15:11:37.943Z,48.50
2022-08-11T15:14:08.262Z,47.35
2022-08-11T15:16:56.715Z,48.75
2022-08-11T15:19:25.635Z,48.20
2022-08-11T15:22:11.576Z,47.07
2022-08-11T15:24:39.324Z,45.49
2022-08-11T15:27:31.812Z,44.34
2022-08-11T15:30:33.730Z,44.51
2022-08-11T15:33:25.540Z,44.39
2022-08-11T15:36:13.597Z,44.81
2022-08-11T15:38:55.411Z,45.14
2022-08-11T15:41:54.500Z,46.39
2022-08-11T15:45:06.070Z,47.15
2022-08-11T15:47:38.262Z,46.19
2022-08-11T15:50:11.426Z,46.42
2022-08-11T15:52:49.729Z,45.62
2022-08-11T15:55:18.818Z,45.31
2022-08-11T15:58:08.047Z,44.95
2022-08-11T16:01:03.755Z,43.34
2022-08-11T16:04:06.721Z,42.20
2022-08-11T16:06:49.703Z,41.13
2022-08-11T16:09:23.637Z,41.63
2022-08-11T16:11:53.284Z,41.21
2022-08-11T16:14:41.621Z,41.73
2022-08-11T16:17:11.792Z,41.88
2022-08-11T16:19:42.415Z,41.87
2022-08-11T16:22:12.838Z,42.41
2022-08-11T16:27:01.791Z,42.54
2022-08-11T16:27:39.382Z,42.89
2022-08-11T16:30:08.485Z,43.01
2022-08-11T16:32:41.977Z,43.40
2022-08-11T16:35:31.588Z,42.67
2022-08-11T16:38:19.407Z,42.72
2022-08-11T16:40:49.123Z,41.95
2022-08-11T16:43:37.470Z,41.91
2022-08-11T16:46:25.556Z,43.10
2022-08-11T16:48:54.576Z,42.22
2022-08-11T16:51:23.178Z,42.66
2022-08-11T16:54:04.573Z,42.69
2022-08-11T16:56:39.153Z,43.43
2022-08-11T16:59:14.793Z,42.49
2022-08-11T17:01:47.421Z,43.79
2022-08-11T17:04:38.665Z,43.42
2022-08-11T17:07:42.023Z,44.00
2022-08-11T17:10:52.582Z,43.80
2022-08-11T17:13:35.208Z,43.59
2022-08-11T17:16:08.348Z,44.07
2022-08-11T17:19:08.066Z,44.15
2022-08-11T17:22:08.216Z,45.14
2022-08-11T17:24:39.249Z,44.89
2022-08-11T17:27:09.172Z,46.71
2022-08-11T17:29:55.428Z,46.12
2022-08-11T17:32:56.757Z,47.53
2022-08-11T17:35:32.751Z,48.54
2022-08-11T17:38:18.638Z,48.76
2022-08-11T17:41:08.500Z,48.58
2022-08-11T17:43:56.301Z,47.52
2022-08-11T17:46:43.747Z,47.33
2022-08-11T17:49:12.950Z,47.92
2022-08-11T17:52:03.152Z,51.15
2022-08-11T17:54:50.331Z,50.95
2022-08-11T17:57:44.257Z,51.60
2022-08-11T18:00:15.322Z,52.39
2022-08-11T18:03:03.586Z,53.01
2022-08-11T18:05:35.826Z,52.45
2022-08-11T18:08:26.611Z,52.58
2022-08-11T18:11:17.443Z,52.71
2022-08-11T18:14:11.837Z,53.95
2022-08-11T18:16:59.696Z,53.92
2022-08-11T18:19:48.749Z,53.88
2022-08-11T18:22:40.637Z,55.18
2022-08-11T18:25:33.585Z,54.58
2022-08-11T18:28:20.352Z,55.20
2022-08-11T18:31:13.089Z,54.32
2022-08-11T18:34:08.016Z,55.68
2022-08-11T18:37:03.919Z,55.25
2022-08-11T18:39:54.670Z,55.47
2022-08-11T18:42:43.940Z,56.48
2022-08-11T18:45:39.928Z,57.50
2022-08-11T18:48:37.117Z,57.35
2022-08-11T18:51:30.468Z,58.62
2022-08-11T18:54:27.783Z,59.18
2022-08-11T18:57:18.543Z,58.86
2022-08-11T19:00:06.339Z,59.28
2022-08-11T19:02:56.500Z,59.34
2022-08-11T19:06:06.003Z,59.83
2022-08-11T19:08:56.583Z,60.04
2022-08-11T19:11:44.975Z,63.38
2022-08-11T19:17:43.611Z,61.23
2022-08-11T19:20:30.077Z,53.54
2022-08-11T19:23:17.116Z,53.85
2022-08-11T19:26:06.017Z,54.55
2022-08-11T19:28:54.508Z,55.34
2022-08-11T19:31:44.649Z,56.84
2022-08-11T19:34:40.806Z,58.27
2022-08-11T19:37:29.037Z,59.16
2022-08-11T19:46:15.390Z,60.86
2022-08-11T19:49:04.637Z,52.93
2022-08-11T19:51:54.626Z,53.80
2022-08-11T19:54:50.685Z,55.07
2022-08-11T19:57:40.214Z,56.05
2022-08-11T20:00:30.911Z,57.14
2022-08-11T20:03:18.862Z,57.98
2022-08-11T20:11:49.608Z,60.69
2022-08-11T20:14:37.762Z,53.74
2022-08-11T20:17:26.243Z,54.94
2022-08-11T20:20:13.611Z,56.61
2022-08-11T20:25:48.552Z,58.78
2022-08-11T20:37:00.920Z,52.95
2022-08-11T20:39:47.895Z,53.18
2022-08-11T20:45:25.804Z,57.43
2022-08-11T21:20:20.844Z,53.41
2022-08-11T21:26:24.171Z,55.59
2022-08-11T21:43:13.414Z,52.24
2022-08-11T21:46:01.625Z,53.97
2022-08-11T21:48:49.130Z,55.59
2022-08-11T21:51:35.335Z,55.67
2022-08-11T21:54:22.049Z,57.47
2022-08-11T22:02:53.208Z,58.53
2022-08-11T22:05:40.544Z,53.56
2022-08-11T22:08:27.897Z,53.83
2022-08-11T22:16:55.366Z,57.38
2022-08-11T22:28:07.192Z,58.46
2022-08-11T22:30:53.315Z,53.65
2022-08-11T22:33:46.567Z,54.58
2022-08-11T22:36:46.576Z,54.27
2022-08-11T22:39:35.398Z,57.45
2022-08-11T22:42:33.614Z,58.56
